Airfield :
LOGIN :

Register | Disclaimer

   EN    FR    IT 

 










Legend :    VFR   Marginal VFR   IFR   Intensive IFR   Very Intensive IFR
Visi :
Ceiling :
>= 8 km
>= 3000ft
5 to 8 km
1000 to 3000 ft
1500m to 5 km
500 to 1000 ft
800 to 1500m
200 to 500 ft
< 800m
< 200 ft
Symbols :   Thunderstorms  Fog  Heavy snow  Heavy precipitations  Wind > 20 kt
SIGMETs :     Misc.  Thunderstorms  Icing  Turbulence  Mountain Waves  Volcanic Ashes







- Airport Elevation : 184 ft
- IATA code : BRU


EBBR - Bruxelles

CURRENT METAR :
  • 221220Z 33010KT 300V030 9999 BKN039 15/06 Q1028 NOSIG

EXPIRED METARs :
  • 221150Z 34012KT 310V010 9999 BKN040 15/06 Q1028 NOSIG
  • 221120Z 35014KT 310V020 9999 BKN039 16/06 Q1028 NOSIG
  • 221050Z 33013KT 300V010 9999 BKN041 16/05 Q1028 NOSIG
  • 221020Z 35014KT 300V020 9999 SCT041 15/05 Q1028 NOSIG
  • 220950Z 32013KT 290V360 9999 SCT045 16/05 Q1028 NOSIG

TAF TAF EBBR
Valid from the 22 at 12:00 until the 23 at 18:00 UTC


221110Z 2212/2318 33015KT 9999 BKN035
TEMPO 2212/2215 33015G25KT
No reported NOTAMs for that airfield.



MET'MAP, your aeronautical weather chart ! - Copyright ORBIFLY December 2007 - Disclaimer

ORBIFLY MET'MAP TEAM :

Programming & Development : Alexandra Zaïnal
Concept & Development : Baudouin d'Aumeries
Co-Development & Prog : Marc-Olivier Méhu
Technical & hardware support : Manuel Goepfert

Contact : metmap@orbifly.com




SOURCES & CREDITS :

   NOAA